Palacios — WDH7171 — position and weather

sailwx.info

Track history (hours):
 
Tides and Currents Weather Stations Pressure Air Temp Water Temp Dewpoint Dewpoint Depression Visibility Wind Speed Wind Dir Waves Ship Positions

Palacios

Owner: Higman Barge Lines, Inc., Orange, TX. More information available from US FCC via Universal Licensing System and Coast Guard Vessel Documentation Center.

Last reported at 2017-Sep-19 05:21 UTC. Time now 2017-Sep-19 11:49 UTC.
Position N 29°44' W 095°12'.

Length 26 m; draft 2.7 m.

Type: Towing. MMSI: 367645520.

Date/timePositionNaut miles runAvg speedWind from/ knotsBaromVisibWave heightAir tempDewpointWater temp
2017-Sep-19 05:21N 29°44' W 095°12'2 6.6
2017-Sep-19 05:00N 29°44' W 095°09'2 4.4
2017-Sep-19 04:30N 29°44' W 095°07'2 0.2
2017-Sep-18 20:14N 29°45' W 095°06'0 0.6
2017-Sep-18 19:29N 29°46' W 095°06'1 1.3
2017-Sep-18 18:41N 29°46' W 095°07'0 0.3
2017-Sep-18 18:24N 29°46' W 095°07'1 2.8
2017-Sep-18 18:00N 29°45' W 095°06'0 0.1
2017-Sep-18 17:29N 29°45' W 095°07'0 0.0
2017-Sep-18 17:00N 29°45' W 095°07'1 0.2
2017-Sep-18 11:43N 29°46' W 095°06'1 4.2
2017-Sep-18 11:30N 29°45' W 095°06'0 0.7
2017-Sep-18 11:00N 29°45' W 095°07'0 0.0
2017-Sep-18 10:30N 29°45' W 095°07'0 0.0
2017-Sep-18 10:00N 29°45' W 095°07'0 0.0
2017-Sep-18 09:25N 29°45' W 095°07'0 0.0
2017-Sep-18 08:55N 29°45' W 095°07'1 0.1
2017-Sep-17 22:06N 29°46' W 095°06'1 4.1
2017-Sep-17 21:49N 29°45' W 095°06'3 7.0
2017-Sep-17 21:26N 29°44' W 095°09'2 1.2
2017-Sep-17 20:01N 29°45' W 095°11'0 5.0
2017-Sep-17 20:00N 29°45' W 095°11'3 6.1
2017-Sep-17 19:27N 29°44' W 095°07'1 0.6
2017-Sep-17 17:40N 29°45' W 095°06'0 1.2
2017-Sep-17 17:30N 29°45' W 095°07'0 0.2
2017-Sep-17 16:50N 29°45' W 095°06'1 0.0
2017-Sep-16 10:46N 29°46' W 095°06'1 2.7
2017-Sep-16 10:22N 29°45' W 095°06'3 7.9
2017-Sep-16 10:00N 29°44' W 095°09'2 0.1
2017-Sep-15 02:50N 29°45' W 095°11'2 6.6
2017-Sep-15 02:30N 29°44' W 095°09'3 0.1
2017-Sep-13 21:53N 29°45' W 095°06'0 0.4
2017-Sep-13 21:28N 29°45' W 095°06'1 1.3
2017-Sep-13 21:00N 29°45' W 095°06'0 0.0
2017-Sep-13 13:57N 29°45' W 095°06'1 1.8
2017-Sep-13 13:26N 29°46' W 095°05'2 0.1
2017-Sep-12 12:58N 29°46' W 095°07'0 0.2
2017-Sep-12 12:27N 29°46' W 095°07'1 0.1
2017-Sep-12 02:56N 29°45' W 095°06'2 4.7
2017-Sep-12 02:30N 29°47' W 095°05'1 1.2
2017-Sep-12 01:49N 29°47' W 095°06'1 3.2
2017-Sep-12 01:30N 29°47' W 095°05'1 2.0
2017-Sep-12 01:00N 29°46' W 095°05'2 4.0
2017-Sep-12 00:30N 29°45' W 095°06'2 3.7
2017-Sep-12 00:00N 29°44' W 095°08'0 0.0
2017-Sep-11 20:40N 29°44' W 095°08'3 0.3
2017-Sep-11 12:36N 29°45' W 095°06'0 3.9
2017-Sep-11 12:30N 29°46' W 095°05'1 0.0
2017-Sep-09 14:44N 29°45' W 095°06'0 2.0
2017-Sep-09 14:30N 29°45' W 095°07'0 0.0
2017-Sep-09 14:00N 29°45' W 095°07'0 0.0
2017-Sep-09 13:30N 29°45' W 095°07'  
Track history (hours):
 
Tides and Currents Weather Stations Pressure Air Temp Water Temp Dewpoint Dewpoint Depression Visibility Wind Speed Wind Dir Waves Ship Positions

Palacios

Owner: Higman Barge Lines, Inc., Orange, TX. More information available from US FCC via Universal Licensing System and Coast Guard Vessel Documentation Center.

Last reported at 2017-Sep-19 05:21 UTC. Time now 2017-Sep-19 11:49 UTC.
Position N 29°44' W 095°12'.

Length 26 m; draft 2.7 m.

Type: Towing. MMSI: 367645520.

Date/timePositionNaut miles runAvg speedWind from/ knotsBaromVisibWave heightAir tempDewpointWater temp
2017-Sep-19 05:21N 29°44' W 095°12'2 6.6
2017-Sep-19 05:00N 29°44' W 095°09'2 4.4
2017-Sep-19 04:30N 29°44' W 095°07'2 0.2
2017-Sep-18 20:14N 29°45' W 095°06'0 0.6
2017-Sep-18 19:29N 29°46' W 095°06'1 1.3
2017-Sep-18 18:41N 29°46' W 095°07'0 0.3
2017-Sep-18 18:24N 29°46' W 095°07'1 2.8
2017-Sep-18 18:00N 29°45' W 095°06'0 0.1
2017-Sep-18 17:29N 29°45' W 095°07'0 0.0
2017-Sep-18 17:00N 29°45' W 095°07'1 0.2
2017-Sep-18 11:43N 29°46' W 095°06'1 4.2
2017-Sep-18 11:30N 29°45' W 095°06'0 0.7
2017-Sep-18 11:00N 29°45' W 095°07'0 0.0
2017-Sep-18 10:30N 29°45' W 095°07'0 0.0
2017-Sep-18 10:00N 29°45' W 095°07'0 0.0
2017-Sep-18 09:25N 29°45' W 095°07'0 0.0
2017-Sep-18 08:55N 29°45' W 095°07'1 0.1
2017-Sep-17 22:06N 29°46' W 095°06'1 4.1
2017-Sep-17 21:49N 29°45' W 095°06'3 7.0
2017-Sep-17 21:26N 29°44' W 095°09'2 1.2
2017-Sep-17 20:01N 29°45' W 095°11'0 5.0
2017-Sep-17 20:00N 29°45' W 095°11'3 6.1
2017-Sep-17 19:27N 29°44' W 095°07'1 0.6
2017-Sep-17 17:40N 29°45' W 095°06'0 1.2
2017-Sep-17 17:30N 29°45' W 095°07'0 0.2
2017-Sep-17 16:50N 29°45' W 095°06'1 0.0
2017-Sep-16 10:46N 29°46' W 095°06'1 2.7
2017-Sep-16 10:22N 29°45' W 095°06'3 7.9
2017-Sep-16 10:00N 29°44' W 095°09'2 0.1
2017-Sep-15 02:50N 29°45' W 095°11'2 6.6
2017-Sep-15 02:30N 29°44' W 095°09'3 0.1
2017-Sep-13 21:53N 29°45' W 095°06'0 0.4
2017-Sep-13 21:28N 29°45' W 095°06'1 1.3
2017-Sep-13 21:00N 29°45' W 095°06'0 0.0
2017-Sep-13 13:57N 29°45' W 095°06'1 1.8
2017-Sep-13 13:26N 29°46' W 095°05'2 0.1
2017-Sep-12 12:58N 29°46' W 095°07'0 0.2
2017-Sep-12 12:27N 29°46' W 095°07'1 0.1
2017-Sep-12 02:56N 29°45' W 095°06'2 4.7
2017-Sep-12 02:30N 29°47' W 095°05'1 1.2
2017-Sep-12 01:49N 29°47' W 095°06'1 3.2
2017-Sep-12 01:30N 29°47' W 095°05'1 2.0
2017-Sep-12 01:00N 29°46' W 095°05'2 4.0
2017-Sep-12 00:30N 29°45' W 095°06'2 3.7
2017-Sep-12 00:00N 29°44' W 095°08'0 0.0
2017-Sep-11 20:40N 29°44' W 095°08'3 0.3
2017-Sep-11 12:36N 29°45' W 095°06'0 3.9
2017-Sep-11 12:30N 29°46' W 095°05'1 0.0
2017-Sep-09 14:44N 29°45' W 095°06'0 2.0
2017-Sep-09 14:30N 29°45' W 095°07'0 0.0
2017-Sep-09 14:00N 29°45' W 095°07'0 0.0
2017-Sep-09 13:30N 29°45' W 095°07'  

Dump ship's entire track history